createdAt,value
2022-10-17T00:00:36.675Z,100.00
2022-10-17T00:03:03.548Z,100.00
2022-10-17T00:05:30.329Z,100.00
2022-10-17T00:07:57.085Z,100.00
2022-10-17T00:10:23.794Z,100.00
2022-10-17T00:12:51.576Z,100.00
2022-10-17T00:15:20.123Z,100.00
2022-10-17T00:17:46.831Z,100.00
2022-10-17T00:20:14.277Z,100.00
2022-10-17T00:22:41.582Z,100.00
2022-10-17T00:25:08.543Z,100.00
2022-10-17T00:27:37.253Z,100.00
2022-10-17T00:30:05.534Z,100.00
2022-10-17T00:32:32.224Z,100.00
2022-10-17T00:34:59.262Z,100.00
2022-10-17T00:37:26.004Z,100.00
2022-10-17T00:39:54.030Z,100.00
2022-10-17T00:42:20.751Z,100.00
2022-10-17T00:44:47.556Z,100.00
2022-10-17T00:47:19.452Z,100.00
2022-10-17T00:49:47.226Z,100.00
2022-10-17T00:52:26.866Z,100.00
2022-10-17T00:54:58.242Z,100.00
2022-10-17T00:57:25.279Z,100.00
2022-10-17T00:59:57.101Z,100.00
2022-10-17T01:02:24.357Z,100.00
2022-10-17T01:04:54.891Z,100.00
2022-10-17T01:07:21.872Z,100.00
2022-10-17T01:09:49.520Z,100.00
2022-10-17T01:12:25.012Z,100.00
2022-10-17T01:15:13.707Z,100.00
2022-10-17T01:18:04.628Z,100.00
2022-10-17T01:21:09.696Z,100.00
2022-10-17T01:24:07.359Z,100.00
2022-10-17T01:27:01.373Z,100.00
2022-10-17T01:29:38.865Z,100.00
2022-10-17T01:32:15.929Z,100.00
2022-10-17T01:34:57.920Z,100.00
2022-10-17T01:37:48.137Z,100.00
2022-10-17T01:40:22.448Z,100.00
2022-10-17T01:43:00.840Z,100.00
2022-10-17T01:45:39.302Z,100.00
2022-10-17T01:48:15.125Z,100.00
2022-10-17T01:50:48.541Z,100.00
2022-10-17T01:53:22.558Z,100.00
2022-10-17T01:55:52.022Z,100.00
2022-10-17T01:58:52.824Z,100.00
2022-10-17T02:01:22.108Z,100.00
2022-10-17T02:03:51.062Z,100.00
2022-10-17T02:06:18.375Z,100.00
2022-10-17T02:08:50.506Z,100.00
2022-10-17T02:11:26.605Z,100.00
2022-10-17T02:13:56.233Z,100.00
2022-10-17T02:16:56.078Z,100.00
2022-10-17T02:19:45.995Z,100.00
2022-10-17T02:22:18.881Z,100.00
2022-10-17T02:24:52.420Z,100.00
2022-10-17T02:27:33.016Z,100.00
2022-10-17T02:30:12.249Z,100.00
2022-10-17T02:32:46.688Z,100.00
2022-10-17T02:35:17.701Z,100.00
2022-10-17T02:37:47.284Z,100.00
2022-10-17T02:40:17.466Z,100.00
2022-10-17T02:42:45.982Z,100.00
2022-10-17T02:45:14.687Z,100.00
2022-10-17T02:48:04.913Z,100.00
2022-10-17T02:50:54.041Z,100.00
2022-10-17T02:54:18.098Z,100.00
2022-10-17T02:56:55.157Z,100.00
2022-10-17T02:59:25.366Z,100.00
2022-10-17T03:01:52.910Z,100.00
2022-10-17T03:04:20.065Z,100.00
2022-10-17T03:06:48.102Z,100.00
2022-10-17T03:09:15.320Z,100.00
2022-10-17T03:11:42.233Z,100.00
2022-10-17T03:14:08.995Z,100.00
2022-10-17T03:16:35.710Z,100.00
2022-10-17T03:19:02.437Z,100.00
2022-10-17T03:21:29.179Z,100.00
2022-10-17T03:23:55.984Z,100.00
2022-10-17T03:26:22.746Z,100.00
2022-10-17T03:28:51.977Z,100.00
2022-10-17T03:31:21.671Z,100.00
2022-10-17T03:33:48.884Z,100.00
2022-10-17T03:36:18.172Z,100.00
2022-10-17T03:38:45.534Z,100.00
2022-10-17T03:41:12.318Z,100.00
2022-10-17T03:43:42.136Z,100.00
2022-10-17T03:46:08.946Z,100.00
2022-10-17T03:48:35.736Z,100.00
2022-10-17T03:51:05.642Z,100.00
2022-10-17T03:53:32.985Z,100.00
2022-10-17T03:56:29.230Z,100.00
2022-10-17T03:58:56.446Z,100.00
2022-10-17T04:01:23.936Z,100.00
2022-10-17T04:03:53.345Z,100.00
2022-10-17T04:06:21.050Z,100.00
2022-10-17T04:08:48.423Z,100.00
2022-10-17T04:11:18.155Z,100.00
2022-10-17T04:13:45.452Z,100.00
2022-10-17T04:16:15.235Z,100.00
2022-10-17T04:18:43.037Z,100.00
2022-10-17T04:21:10.725Z,100.00
2022-10-17T04:23:37.454Z,100.00
2022-10-17T04:26:05.188Z,100.00
2022-10-17T04:28:33.208Z,100.00
2022-10-17T04:31:05.708Z,100.00
2022-10-17T04:33:33.374Z,100.00
2022-10-17T04:36:01.946Z,100.00
2022-10-17T04:38:29.442Z,100.00
2022-10-17T04:41:03.079Z,100.00
2022-10-17T04:43:35.478Z,100.00
2022-10-17T04:46:04.531Z,100.00
2022-10-17T04:48:31.747Z,100.00
2022-10-17T04:51:00.915Z,100.00
2022-10-17T04:53:28.556Z,100.00
2022-10-17T04:55:55.275Z,100.00
2022-10-17T04:58:22.259Z,100.00
2022-10-17T05:00:49.047Z,100.00
2022-10-17T05:03:16.282Z,100.00
2022-10-17T05:05:43.414Z,100.00
2022-10-17T05:08:11.171Z,100.00
2022-10-17T05:10:43.615Z,100.00
2022-10-17T05:13:11.061Z,100.00
2022-10-17T05:15:38.216Z,100.00
2022-10-17T05:18:06.164Z,100.00
2022-10-17T05:20:33.484Z,100.00
2022-10-17T05:23:00.855Z,100.00
2022-10-17T05:25:27.975Z,100.00
2022-10-17T05:27:54.639Z,100.00
2022-10-17T05:30:21.357Z,100.00
2022-10-17T05:32:48.224Z,100.00
2022-10-17T05:35:14.933Z,100.00
2022-10-17T05:37:41.624Z,100.00
2022-10-17T05:40:08.734Z,100.00
2022-10-17T05:42:35.455Z,100.00
2022-10-17T05:45:02.394Z,100.00
2022-10-17T05:47:29.439Z,100.00
2022-10-17T05:49:56.215Z,100.00
2022-10-17T05:52:22.829Z,100.00
2022-10-17T05:54:49.524Z,100.00
2022-10-17T05:57:16.206Z,100.00
2022-10-17T05:59:42.918Z,100.00
2022-10-17T06:02:12.835Z,100.00
2022-10-17T06:04:45.281Z,100.00
2022-10-17T06:07:16.118Z,100.00
2022-10-17T06:09:43.422Z,100.00
2022-10-17T06:12:10.071Z,100.00
2022-10-17T06:14:36.770Z,100.00
2022-10-17T06:17:04.075Z,100.00
2022-10-17T06:19:30.721Z,100.00
2022-10-17T06:21:57.363Z,100.00
2022-10-17T06:24:24.065Z,100.00
2022-10-17T06:26:51.076Z,100.00
2022-10-17T06:29:18.001Z,100.00
2022-10-17T06:31:44.670Z,100.00
2022-10-17T06:34:11.352Z,100.00
2022-10-17T06:36:38.006Z,100.00
2022-10-17T06:39:04.732Z,100.00
2022-10-17T06:41:31.454Z,100.00
2022-10-17T06:43:58.300Z,100.00
2022-10-17T06:46:26.774Z,100.00
2022-10-17T06:48:53.513Z,100.00
2022-10-17T06:51:20.495Z,100.00
2022-10-17T06:53:47.392Z,100.00
2022-10-17T06:56:14.197Z,100.00
2022-10-17T06:58:41.694Z,100.00
2022-10-17T07:01:11.553Z,100.00
2022-10-17T07:03:39.654Z,100.00
2022-10-17T07:06:06.682Z,100.00
2022-10-17T07:08:33.654Z,100.00
2022-10-17T07:11:09.236Z,100.00
2022-10-17T07:13:39.126Z,100.00
2022-10-17T07:16:06.888Z,100.00
2022-10-17T07:18:33.832Z,100.00
2022-10-17T07:21:00.950Z,100.00
2022-10-17T07:23:28.064Z,100.00
2022-10-17T07:25:59.921Z,100.00
2022-10-17T07:28:26.933Z,100.00
2022-10-17T07:30:54.418Z,100.00
2022-10-17T07:33:21.681Z,100.00
2022-10-17T07:35:48.806Z,100.00
2022-10-17T07:38:15.622Z,100.00
2022-10-17T07:40:42.900Z,100.00
2022-10-17T07:43:09.865Z,100.00
2022-10-17T07:45:36.701Z,100.00
2022-10-17T07:48:03.534Z,100.00
2022-10-17T07:50:31.883Z,100.00
2022-10-17T07:52:58.572Z,100.00
2022-10-17T07:55:25.268Z,100.00
2022-10-17T07:57:51.953Z,100.00
2022-10-17T08:00:18.730Z,100.00
2022-10-17T08:02:45.516Z,100.00
2022-10-17T08:05:12.188Z,100.00
2022-10-17T08:07:39.005Z,100.00
2022-10-17T08:10:06.174Z,100.00
2022-10-17T08:12:34.344Z,100.00
2022-10-17T08:15:01.552Z,100.00
2022-10-17T08:17:28.371Z,100.00
2022-10-17T08:19:55.048Z,99.73
2022-10-17T08:22:21.811Z,97.61
2022-10-17T08:24:48.505Z,97.08
2022-10-17T08:27:15.428Z,97.08
2022-10-17T08:29:42.335Z,96.96
2022-10-17T08:32:10.282Z,98.30
2022-10-17T08:34:37.206Z,97.60
2022-10-17T08:37:04.021Z,97.32
2022-10-17T08:39:30.794Z,97.82
2022-10-17T08:42:25.135Z,95.50
2022-10-17T08:45:14.577Z,94.49
2022-10-17T08:47:45.371Z,94.26
2022-10-17T08:50:36.722Z,94.54
2022-10-17T08:53:26.716Z,94.49
2022-10-17T08:55:54.857Z,91.49
2022-10-17T08:58:29.088Z,93.04
2022-10-17T09:01:13.121Z,92.56
2022-10-17T09:03:43.522Z,91.78
2022-10-17T09:06:31.377Z,92.48
2022-10-17T09:09:35.819Z,92.20
2022-10-17T09:12:17.211Z,93.15
2022-10-17T09:15:14.759Z,90.48
2022-10-17T09:18:11.352Z,91.06
2022-10-17T09:20:57.934Z,86.68
2022-10-17T09:23:43.898Z,91.37
2022-10-17T09:26:12.226Z,92.14
2022-10-17T09:28:40.862Z,87.34
2022-10-17T09:31:20.327Z,89.45
2022-10-17T09:33:54.246Z,85.67
2022-10-17T09:36:24.635Z,89.06
2022-10-17T09:38:57.858Z,87.27
2022-10-17T09:41:49.211Z,84.51
2022-10-17T09:44:15.981Z,86.61
2022-10-17T09:46:53.909Z,84.65
2022-10-17T09:49:29.201Z,85.00
2022-10-17T09:51:55.966Z,84.32
2022-10-17T09:54:25.111Z,83.89
2022-10-17T09:57:07.372Z,83.65
2022-10-17T09:59:37.616Z,80.87
2022-10-17T10:02:25.078Z,81.77
2022-10-17T10:05:03.762Z,80.35
2022-10-17T10:07:34.183Z,80.86
2022-10-17T10:10:03.511Z,79.49
2022-10-17T10:12:39.010Z,83.07
2022-10-17T10:15:41.005Z,80.82
2022-10-17T10:18:26.176Z,80.89
2022-10-17T10:21:09.457Z,80.84
2022-10-17T10:23:40.022Z,78.54
2022-10-17T10:26:21.048Z,81.16
2022-10-17T10:28:57.913Z,80.28
2022-10-17T10:31:37.213Z,79.96
2022-10-17T10:34:16.703Z,80.13
2022-10-17T10:36:46.574Z,76.94
2022-10-17T10:39:30.778Z,75.77
2022-10-17T10:41:58.160Z,75.21
2022-10-17T10:44:28.781Z,74.40
2022-10-17T10:47:17.006Z,73.72
2022-10-17T10:49:44.282Z,70.67
2022-10-17T10:52:22.422Z,71.33
2022-10-17T10:55:15.666Z,69.23
2022-10-17T10:57:44.920Z,65.06
2022-10-17T11:00:17.344Z,66.21
2022-10-17T11:03:13.359Z,63.66
2022-10-17T11:05:50.497Z,61.61
2022-10-17T11:08:31.484Z,59.78
2022-10-17T11:11:28.056Z,60.90
2022-10-17T11:14:03.737Z,56.91
2022-10-17T11:16:33.465Z,61.42
2022-10-17T11:19:12.284Z,59.22
2022-10-17T11:22:07.369Z,59.25
2022-10-17T11:24:42.817Z,55.41
2022-10-17T11:27:09.791Z,54.39
2022-10-17T11:29:42.069Z,57.59
2022-10-17T11:32:19.494Z,53.71
2022-10-17T11:34:51.978Z,54.11
2022-10-17T11:37:22.885Z,56.38
2022-10-17T11:40:02.098Z,53.12
2022-10-17T11:42:39.576Z,49.44
2022-10-17T11:45:14.184Z,50.61
2022-10-17T11:47:47.197Z,48.14
2022-10-17T11:53:15.978Z,44.38
2022-10-17T11:55:44.442Z,42.26
2022-10-17T11:58:23.671Z,41.61
2022-10-17T12:00:56.434Z,40.32
2022-10-17T12:03:54.415Z,42.22
2022-10-17T12:06:39.140Z,39.78
2022-10-17T12:09:23.101Z,38.85
2022-10-17T12:11:58.522Z,39.01
2022-10-17T12:14:47.429Z,39.12
2022-10-17T12:17:23.132Z,38.11
2022-10-17T12:19:49.918Z,38.35
2022-10-17T12:22:26.762Z,37.12
2022-10-17T12:24:58.062Z,37.31
2022-10-17T12:27:46.382Z,36.32
2022-10-17T12:30:16.836Z,36.80
2022-10-17T12:33:07.470Z,34.66
2022-10-17T12:35:37.993Z,34.81
2022-10-17T12:38:23.156Z,35.17
2022-10-17T12:40:52.399Z,34.96
2022-10-17T12:43:28.392Z,34.99
2022-10-17T12:45:56.101Z,35.08
2022-10-17T12:48:38.374Z,35.47
2022-10-17T12:51:34.291Z,37.24
2022-10-17T12:54:12.736Z,35.28
2022-10-17T12:56:49.481Z,34.85
2022-10-17T12:59:30.403Z,34.95
2022-10-17T13:02:06.450Z,34.79
2022-10-17T13:04:36.948Z,35.24
2022-10-17T13:07:04.007Z,35.31
2022-10-17T13:09:38.789Z,35.76
2022-10-17T13:12:13.376Z,36.11
2022-10-17T13:14:42.858Z,36.12
2022-10-17T13:17:29.445Z,36.24
2022-10-17T13:19:57.249Z,35.89
2022-10-17T13:22:30.570Z,35.36
2022-10-17T13:25:16.431Z,36.01
2022-10-17T13:27:43.514Z,36.77
2022-10-17T13:30:32.180Z,38.11
2022-10-17T13:33:02.563Z,38.50
2022-10-17T13:35:58.978Z,38.54
2022-10-17T13:38:28.836Z,38.62
2022-10-17T13:41:05.796Z,38.68
2022-10-17T13:43:48.226Z,38.78
2022-10-17T13:46:44.701Z,39.30
2022-10-17T13:49:36.739Z,39.63
2022-10-17T13:52:07.343Z,39.39
2022-10-17T13:54:36.322Z,39.83
2022-10-17T13:57:04.998Z,39.60
2022-10-17T13:59:42.366Z,40.33
2022-10-17T14:02:32.262Z,41.29
2022-10-17T14:05:19.527Z,42.37
2022-10-17T14:08:10.578Z,43.97
2022-10-17T14:10:39.932Z,45.15
2022-10-17T14:13:08.358Z,44.62
2022-10-17T14:15:36.662Z,44.77
2022-10-17T14:18:08.029Z,45.83
2022-10-17T14:21:19.823Z,47.35
2022-10-17T14:23:33.592Z,47.74
2022-10-17T14:26:09.666Z,46.86
2022-10-17T14:28:37.441Z,47.92
2022-10-17T14:31:22.117Z,49.30
2022-10-17T14:33:51.433Z,47.87
2022-10-17T14:36:20.306Z,48.94
2022-10-17T14:38:51.865Z,50.10
2022-10-17T14:44:34.292Z,49.81
2022-10-17T14:47:30.858Z,50.47
2022-10-17T14:50:11.909Z,51.79
2022-10-17T14:52:39.736Z,52.39
2022-10-17T14:55:34.882Z,51.33
2022-10-17T14:58:02.141Z,51.45
2022-10-17T15:00:28.811Z,52.56
2022-10-17T15:02:56.008Z,52.61
2022-10-17T15:05:23.381Z,53.19
2022-10-17T15:07:50.136Z,53.65
2022-10-17T15:10:34.925Z,54.12
2022-10-17T15:15:51.776Z,54.61
2022-10-17T15:18:18.530Z,55.36
2022-10-17T15:20:45.292Z,55.62
2022-10-17T15:23:12.123Z,55.80
2022-10-17T15:25:39.022Z,56.88
2022-10-17T15:28:05.896Z,57.41
2022-10-17T15:30:36.146Z,58.23
2022-10-17T15:33:03.062Z,59.25
2022-10-17T15:35:30.304Z,59.24
2022-10-17T15:37:57.177Z,60.97
2022-10-17T15:40:28.627Z,61.60
2022-10-17T15:42:56.362Z,63.70
2022-10-17T15:45:23.761Z,66.01
2022-10-17T15:48:02.794Z,67.62
2022-10-17T15:50:30.538Z,69.31
2022-10-17T15:52:57.209Z,71.57
2022-10-17T15:55:24.596Z,72.25
2022-10-17T15:57:51.461Z,72.71
2022-10-17T16:00:24.758Z,72.33
2022-10-17T16:02:51.635Z,72.76
2022-10-17T16:05:25.937Z,73.66
2022-10-17T16:07:53.881Z,74.82
2022-10-17T16:10:22.181Z,75.63
2022-10-17T16:12:50.057Z,77.11
2022-10-17T16:15:22.861Z,76.67
2022-10-17T16:17:50.294Z,76.53
2022-10-17T16:20:17.212Z,76.95
2022-10-17T16:22:44.873Z,77.66
2022-10-17T16:25:19.648Z,79.74
2022-10-17T16:27:47.895Z,80.73
2022-10-17T16:30:15.847Z,82.64
2022-10-17T16:32:42.868Z,83.61
2022-10-17T16:35:16.192Z,83.36
2022-10-17T16:37:43.113Z,84.17
2022-10-17T16:40:10.865Z,85.36
2022-10-17T16:42:40.902Z,85.87
2022-10-17T16:45:08.545Z,85.04
2022-10-17T16:47:35.420Z,84.82
2022-10-17T16:50:06.977Z,86.80
2022-10-17T16:52:33.671Z,88.95
2022-10-17T16:55:00.532Z,91.93
2022-10-17T16:57:27.212Z,92.79
2022-10-17T16:59:54.052Z,94.16
2022-10-17T17:02:23.969Z,94.97
2022-10-17T17:04:50.871Z,94.66
2022-10-17T17:07:21.695Z,94.72
2022-10-17T17:09:48.969Z,93.80
2022-10-17T17:12:15.786Z,94.93
2022-10-17T17:14:42.570Z,95.43
2022-10-17T17:17:15.440Z,95.76
2022-10-17T17:19:51.322Z,97.87
2022-10-17T17:22:18.205Z,100.00
2022-10-17T17:24:44.974Z,100.00
2022-10-17T17:27:13.536Z,100.00
2022-10-17T17:29:40.440Z,99.92
2022-10-17T17:32:07.186Z,100.00
2022-10-17T17:34:37.534Z,100.00
2022-10-17T17:37:04.598Z,100.00
2022-10-17T17:39:31.454Z,100.00
2022-10-17T17:41:58.236Z,100.00
2022-10-17T17:44:25.379Z,100.00
2022-10-17T17:46:52.388Z,100.00
2022-10-17T17:49:19.197Z,100.00
2022-10-17T17:51:46.505Z,100.00
2022-10-17T17:54:14.403Z,100.00
2022-10-17T17:56:41.297Z,100.00
2022-10-17T17:59:10.378Z,100.00
2022-10-17T18:01:38.737Z,100.00
2022-10-17T18:04:08.561Z,100.00
2022-10-17T18:06:36.761Z,100.00
2022-10-17T18:09:04.780Z,100.00
2022-10-17T18:11:32.316Z,100.00
2022-10-17T18:14:04.671Z,100.00
2022-10-17T18:16:33.362Z,100.00
2022-10-17T18:19:06.732Z,100.00
2022-10-17T18:21:34.914Z,100.00
2022-10-17T18:24:02.187Z,100.00
2022-10-17T18:26:28.918Z,100.00
2022-10-17T18:28:56.165Z,100.00
2022-10-17T18:31:28.176Z,100.00
2022-10-17T18:33:59.999Z,100.00
2022-10-17T18:36:28.120Z,100.00
2022-10-17T18:38:58.176Z,100.00
2022-10-17T18:41:26.148Z,100.00
2022-10-17T18:43:56.418Z,100.00
2022-10-17T18:46:25.587Z,100.00
2022-10-17T18:48:52.533Z,100.00
2022-10-17T18:51:21.880Z,100.00
2022-10-17T18:53:51.515Z,100.00
2022-10-17T18:56:19.562Z,100.00
2022-10-17T18:58:46.861Z,100.00
2022-10-17T19:01:19.499Z,100.00
2022-10-17T19:03:49.401Z,100.00
2022-10-17T19:06:17.994Z,100.00
2022-10-17T19:08:45.424Z,100.00
2022-10-17T19:11:20.911Z,100.00
2022-10-17T19:13:48.733Z,100.00
2022-10-17T19:16:24.856Z,100.00
2022-10-17T19:18:53.858Z,100.00
2022-10-17T19:21:22.092Z,100.00
2022-10-17T19:23:54.694Z,100.00
2022-10-17T19:26:22.867Z,100.00
2022-10-17T19:28:53.581Z,100.00
2022-10-17T19:31:26.538Z,100.00
2022-10-17T19:33:55.586Z,100.00
2022-10-17T19:36:28.898Z,100.00
2022-10-17T19:38:59.655Z,100.00
2022-10-17T19:41:27.030Z,100.00
2022-10-17T19:43:53.950Z,100.00
2022-10-17T19:46:24.547Z,100.00
2022-10-17T19:48:51.902Z,100.00
2022-10-17T19:51:20.491Z,100.00
2022-10-17T19:53:47.600Z,100.00
2022-10-17T19:56:18.514Z,100.00
2022-10-17T19:58:48.199Z,100.00
2022-10-17T20:01:18.920Z,100.00
2022-10-17T20:03:46.452Z,100.00
2022-10-17T20:06:13.974Z,100.00
2022-10-17T20:08:41.370Z,100.00
2022-10-17T20:11:11.650Z,100.00
2022-10-17T20:13:38.898Z,100.00
2022-10-17T20:16:07.939Z,100.00
2022-10-17T20:18:36.182Z,100.00
2022-10-17T20:21:09.588Z,100.00
2022-10-17T20:23:36.589Z,100.00
2022-10-17T20:26:25.457Z,100.00
2022-10-17T20:28:54.035Z,100.00
2022-10-17T20:31:21.512Z,100.00
2022-10-17T20:33:48.134Z,100.00
2022-10-17T20:36:14.855Z,100.00
2022-10-17T20:38:41.564Z,100.00
2022-10-17T20:41:09.929Z,100.00
2022-10-17T20:43:37.599Z,100.00
2022-10-17T20:46:21.885Z,100.00
2022-10-17T20:48:53.989Z,100.00
2022-10-17T20:51:21.655Z,100.00
2022-10-17T20:53:49.044Z,100.00
2022-10-17T20:56:20.638Z,100.00
2022-10-17T20:58:52.944Z,100.00
2022-10-17T21:01:20.748Z,100.00
2022-10-17T21:03:47.650Z,100.00
2022-10-17T21:06:14.843Z,100.00
2022-10-17T21:08:42.303Z,100.00
2022-10-17T21:11:15.945Z,100.00
2022-10-17T21:13:43.194Z,100.00
2022-10-17T21:16:12.489Z,100.00
2022-10-17T21:18:40.077Z,100.00
2022-10-17T21:21:29.499Z,100.00
2022-10-17T21:24:00.268Z,100.00
2022-10-17T21:26:27.852Z,100.00
2022-10-17T21:28:55.559Z,100.00
2022-10-17T21:31:27.639Z,100.00
2022-10-17T21:33:56.716Z,100.00
2022-10-17T21:36:24.927Z,100.00
2022-10-17T21:38:53.173Z,100.00
2022-10-17T21:41:21.995Z,100.00
2022-10-17T21:43:52.725Z,100.00
2022-10-17T21:46:20.503Z,100.00
2022-10-17T21:48:48.141Z,100.00
2022-10-17T21:51:16.988Z,100.00
2022-10-17T21:53:44.038Z,100.00
2022-10-17T21:56:13.335Z,100.00
2022-10-17T21:58:40.555Z,100.00
2022-10-17T22:01:08.669Z,100.00
2022-10-17T22:03:42.694Z,100.00
2022-10-17T22:09:02.918Z,100.00
2022-10-17T22:11:31.556Z,100.00
2022-10-17T22:14:04.284Z,100.00
2022-10-17T22:16:31.222Z,100.00
2022-10-17T22:19:03.197Z,100.00
2022-10-17T22:21:32.984Z,100.00
2022-10-17T22:24:02.220Z,100.00
2022-10-17T22:26:30.911Z,100.00
2022-10-17T22:28:57.965Z,100.00
2022-10-17T22:31:25.147Z,100.00
2022-10-17T22:33:52.362Z,100.00
2022-10-17T22:36:19.351Z,100.00
2022-10-17T22:38:46.123Z,100.00
2022-10-17T22:41:12.815Z,100.00
2022-10-17T22:43:39.634Z,100.00
2022-10-17T22:46:07.342Z,100.00
2022-10-17T22:48:34.589Z,100.00
2022-10-17T22:51:01.340Z,100.00
2022-10-17T22:53:29.615Z,100.00
2022-10-17T22:56:02.009Z,100.00
2022-10-17T22:58:30.587Z,100.00
2022-10-17T23:00:58.401Z,100.00
2022-10-17T23:03:27.932Z,100.00
2022-10-17T23:05:55.037Z,100.00
2022-10-17T23:08:21.725Z,100.00
2022-10-17T23:10:48.572Z,100.00
2022-10-17T23:13:15.748Z,100.00
2022-10-17T23:15:43.423Z,100.00
2022-10-17T23:18:10.170Z,100.00
2022-10-17T23:20:37.992Z,100.00
2022-10-17T23:23:05.096Z,100.00
2022-10-17T23:25:33.883Z,100.00
2022-10-17T23:28:01.054Z,100.00
2022-10-17T23:30:28.092Z,100.00
2022-10-17T23:32:54.832Z,100.00
2022-10-17T23:35:21.548Z,100.00
2022-10-17T23:37:48.257Z,100.00
2022-10-17T23:40:15.034Z,100.00
2022-10-17T23:42:41.809Z,100.00
2022-10-17T23:45:09.073Z,100.00
2022-10-17T23:47:35.812Z,100.00
2022-10-17T23:50:03.436Z,100.00
2022-10-17T23:52:30.141Z,100.00
2022-10-17T23:54:56.827Z,100.00
2022-10-17T23:57:23.529Z,100.00
2022-10-17T23:59:50.208Z,100.00
